createdAt,value
2022-12-07T00:01:48.553Z,6.72
2022-12-07T00:03:53.396Z,6.82
2022-12-07T00:05:58.651Z,6.79
2022-12-07T00:08:00.837Z,6.77
2022-12-07T00:10:02.970Z,6.65
2022-12-07T00:12:05.683Z,6.63
2022-12-07T00:14:12.040Z,6.90
2022-12-07T00:16:16.967Z,6.91
2022-12-07T00:18:19.174Z,6.90
2022-12-07T00:20:21.005Z,6.74
2022-12-07T00:22:22.841Z,6.83
2022-12-07T00:24:25.063Z,6.74
2022-12-07T00:26:31.199Z,6.88
2022-12-07T00:28:34.715Z,6.60
2022-12-07T00:30:36.879Z,6.58
2022-12-07T00:32:38.653Z,6.80
2022-12-07T00:34:40.575Z,6.76
2022-12-07T00:36:42.854Z,6.91
2022-12-07T00:38:44.750Z,6.93
2022-12-07T00:40:55.330Z,7.05
2022-12-07T00:42:57.681Z,6.88
2022-12-07T00:44:59.529Z,7.03
2022-12-07T00:47:01.734Z,7.11
2022-12-07T00:49:03.928Z,7.07
2022-12-07T00:51:06.748Z,7.11
2022-12-07T00:53:08.856Z,7.06
2022-12-07T00:55:10.674Z,7.09
2022-12-07T00:57:12.434Z,7.06
2022-12-07T00:59:17.431Z,7.09
2022-12-07T01:01:19.288Z,7.05
2022-12-07T01:03:21.189Z,7.13
2022-12-07T01:05:23.646Z,7.19
2022-12-07T01:07:25.514Z,7.16
2022-12-07T01:09:27.351Z,7.13
2022-12-07T01:11:30.921Z,7.10
2022-12-07T01:13:35.170Z,7.26
2022-12-07T01:15:41.331Z,7.24
2022-12-07T01:17:43.818Z,7.04
2022-12-07T01:19:45.598Z,7.36
2022-12-07T01:21:47.781Z,7.31
2022-12-07T01:23:50.374Z,7.35
2022-12-07T01:26:00.076Z,7.37
2022-12-07T01:28:02.242Z,7.37
2022-12-07T01:30:06.605Z,7.35
2022-12-07T01:32:08.583Z,7.42
2022-12-07T01:34:11.239Z,7.49
2022-12-07T01:36:23.767Z,7.47
2022-12-07T01:38:25.518Z,7.40
2022-12-07T01:40:27.681Z,7.31
2022-12-07T01:42:29.866Z,7.43
2022-12-07T01:44:33.801Z,7.43
2022-12-07T01:46:35.967Z,7.51
2022-12-07T01:48:42.310Z,7.44
2022-12-07T01:50:46.275Z,7.50
2022-12-07T01:52:51.930Z,7.44
2022-12-07T01:54:57.951Z,7.47
2022-12-07T01:57:00.640Z,7.45
2022-12-07T01:59:02.629Z,7.55
2022-12-07T02:01:05.641Z,7.59
2022-12-07T02:03:19.844Z,7.52
2022-12-07T02:05:23.914Z,7.54
2022-12-07T02:07:27.950Z,7.58
2022-12-07T02:09:30.078Z,7.59
2022-12-07T02:11:32.191Z,7.65
2022-12-07T02:13:37.056Z,7.60
2022-12-07T02:16:04.556Z,7.67
2022-12-07T02:18:15.556Z,7.58
2022-12-07T02:20:30.052Z,7.62
2022-12-07T02:23:08.539Z,7.69
2022-12-07T02:25:51.933Z,7.62
2022-12-07T02:28:02.593Z,7.71
2022-12-07T02:30:25.813Z,7.66
2022-12-07T02:33:00.002Z,7.68
2022-12-07T02:35:06.485Z,7.64
2022-12-07T02:37:41.157Z,7.64
2022-12-07T02:39:58.900Z,7.56
2022-12-07T02:42:08.705Z,7.63
2022-12-07T02:44:17.680Z,7.67
2022-12-07T02:46:24.455Z,7.64
2022-12-07T02:48:27.423Z,7.59
2022-12-07T02:50:29.742Z,7.63
2022-12-07T02:52:31.615Z,7.53
2022-12-07T02:54:33.454Z,7.47
2022-12-07T02:56:44.601Z,7.51
2022-12-07T02:59:25.282Z,7.49
2022-12-07T03:01:45.448Z,7.50
2022-12-07T03:03:55.406Z,7.53
2022-12-07T03:06:09.709Z,7.58
2022-12-07T03:08:15.539Z,7.58
2022-12-07T03:10:59.468Z,7.53
2022-12-07T03:13:01.562Z,7.56
2022-12-07T03:15:13.403Z,7.40
2022-12-07T03:17:25.239Z,7.35
2022-12-07T03:19:28.977Z,7.32
2022-12-07T03:21:40.533Z,7.27
2022-12-07T03:23:46.322Z,7.34
2022-12-07T03:26:00.194Z,7.27
2022-12-07T03:28:08.218Z,7.41
2022-12-07T03:30:18.520Z,7.36
2022-12-07T03:32:29.214Z,7.37
2022-12-07T03:34:37.427Z,7.47
2022-12-07T03:37:02.708Z,7.48
2022-12-07T03:39:18.271Z,7.48
2022-12-07T03:41:30.223Z,7.42
2022-12-07T03:43:32.906Z,7.19
2022-12-07T03:45:49.579Z,7.27
2022-12-07T03:48:07.801Z,7.24
2022-12-07T03:50:26.391Z,7.21
2022-12-07T03:52:48.612Z,7.23
2022-12-07T03:54:59.535Z,7.16
2022-12-07T03:57:03.195Z,7.22
2022-12-07T03:59:05.632Z,7.22
2022-12-07T04:01:07.557Z,7.28
2022-12-07T04:03:09.526Z,7.18
2022-12-07T04:05:12.285Z,7.19
2022-12-07T04:07:14.127Z,7.17
2022-12-07T04:09:16.180Z,7.29
2022-12-07T04:11:18.351Z,7.28
2022-12-07T04:13:20.121Z,7.28
2022-12-07T04:15:22.499Z,7.16
2022-12-07T04:17:24.314Z,7.08
2022-12-07T04:19:31.413Z,7.15
2022-12-07T04:21:33.531Z,7.15
2022-12-07T04:23:35.324Z,7.15
2022-12-07T04:25:37.468Z,7.19
2022-12-07T04:27:39.408Z,7.02
2022-12-07T04:29:41.182Z,7.05
2022-12-07T04:31:43.531Z,7.16
2022-12-07T04:33:45.605Z,7.28
2022-12-07T04:35:47.395Z,7.29
2022-12-07T04:37:49.572Z,7.20
2022-12-07T04:39:51.415Z,7.28
2022-12-07T04:41:53.664Z,7.20
2022-12-07T04:43:57.407Z,7.24
2022-12-07T04:45:59.227Z,7.17
2022-12-07T04:48:01.154Z,7.12
2022-12-07T04:50:04.115Z,7.07
2022-12-07T04:52:06.193Z,7.09
2022-12-07T04:54:08.127Z,6.92
2022-12-07T04:56:10.240Z,6.98
2022-12-07T04:58:12.627Z,6.99
2022-12-07T05:00:14.640Z,7.01
2022-12-07T05:02:16.797Z,7.03
2022-12-07T05:04:19.080Z,7.06
2022-12-07T05:06:20.950Z,7.03
2022-12-07T05:08:23.100Z,6.98
2022-12-07T05:10:25.005Z,6.99
2022-12-07T05:12:27.034Z,6.99
2022-12-07T05:14:29.181Z,7.09
2022-12-07T05:16:31.044Z,7.06
2022-12-07T05:18:32.979Z,7.06
2022-12-07T05:20:40.742Z,7.07
2022-12-07T05:22:44.192Z,7.01
2022-12-07T05:24:46.347Z,6.97
2022-12-07T05:26:48.173Z,6.92
2022-12-07T05:28:54.024Z,6.93
2022-12-07T05:30:59.805Z,6.64
2022-12-07T05:33:01.990Z,6.78
2022-12-07T05:35:04.685Z,6.85
2022-12-07T05:37:06.495Z,6.90
2022-12-07T05:39:08.638Z,6.75
2022-12-07T05:41:35.217Z,6.77
2022-12-07T05:43:36.971Z,6.74
2022-12-07T05:45:39.446Z,6.69
2022-12-07T05:47:41.224Z,6.68
2022-12-07T05:49:43.115Z,6.66
2022-12-07T05:51:45.363Z,6.58
2022-12-07T05:53:47.111Z,6.60
2022-12-07T05:55:48.903Z,6.53
2022-12-07T05:58:09.546Z,6.50
2022-12-07T06:00:12.166Z,6.57
2022-12-07T06:02:15.145Z,6.58
2022-12-07T06:04:18.025Z,6.47
2022-12-07T06:06:19.927Z,6.60
2022-12-07T06:08:22.188Z,6.57
2022-12-07T06:10:24.086Z,6.65
2022-12-07T06:12:35.111Z,6.62
2022-12-07T06:14:38.019Z,6.52
2022-12-07T06:16:40.076Z,6.58
2022-12-07T06:18:41.960Z,6.60
2022-12-07T06:20:44.046Z,6.59
2022-12-07T06:22:45.861Z,6.62
2022-12-07T06:24:48.060Z,6.53
2022-12-07T06:26:50.419Z,6.42
2022-12-07T06:28:52.222Z,6.40
2022-12-07T06:31:01.580Z,6.39
2022-12-07T06:33:03.370Z,6.47
2022-12-07T06:35:05.903Z,6.48
2022-12-07T06:37:07.675Z,6.51
2022-12-07T06:39:10.185Z,6.51
2022-12-07T06:41:12.481Z,6.58
2022-12-07T06:43:14.240Z,6.54
2022-12-07T06:45:16.409Z,6.50
2022-12-07T06:47:40.167Z,6.43
2022-12-07T06:49:40.287Z,6.45
2022-12-07T06:51:43.072Z,6.36
2022-12-07T06:53:45.094Z,6.50
2022-12-07T06:55:46.888Z,6.48
2022-12-07T06:57:49.036Z,6.51
2022-12-07T06:59:50.798Z,6.45
2022-12-07T07:01:52.572Z,6.33
2022-12-07T07:03:54.931Z,6.51
2022-12-07T07:05:56.802Z,6.55
2022-12-07T07:08:21.400Z,6.31
2022-12-07T07:10:21.850Z,6.50
2022-12-07T07:12:23.690Z,6.46
2022-12-07T07:14:25.570Z,6.36
2022-12-07T07:16:27.785Z,6.54
2022-12-07T07:18:30.096Z,6.48
2022-12-07T07:20:31.871Z,6.62
2022-12-07T07:22:34.078Z,6.54
2022-12-07T07:24:35.886Z,6.47
2022-12-07T07:26:38.028Z,6.51
2022-12-07T07:28:39.820Z,6.53
2022-12-07T07:30:41.739Z,6.45
2022-12-07T07:32:43.874Z,6.58
2022-12-07T07:34:45.643Z,6.60
2022-12-07T07:36:47.506Z,6.40
2022-12-07T07:38:49.682Z,6.63
2022-12-07T07:40:51.523Z,6.56
2022-12-07T07:42:54.774Z,6.69
2022-12-07T07:44:56.923Z,6.72
2022-12-07T07:46:58.757Z,6.58
2022-12-07T07:49:00.925Z,6.64
2022-12-07T07:51:08.051Z,6.76
2022-12-07T07:53:09.901Z,6.73
2022-12-07T07:55:12.725Z,6.90
2022-12-07T07:57:14.781Z,6.83
2022-12-07T07:59:17.017Z,6.66
2022-12-07T08:01:20.865Z,6.89
2022-12-07T08:03:22.894Z,6.88
2022-12-07T08:05:24.674Z,6.76
2022-12-07T08:07:28.769Z,6.84
2022-12-07T08:09:30.526Z,6.90
2022-12-07T08:11:32.506Z,6.86
2022-12-07T08:13:34.659Z,6.89
2022-12-07T08:15:38.495Z,6.94
2022-12-07T08:17:40.278Z,6.96
2022-12-07T08:19:42.438Z,7.02
2022-12-07T08:21:44.282Z,7.01
2022-12-07T08:23:46.106Z,7.02
2022-12-07T08:25:48.494Z,7.03
2022-12-07T08:27:51.446Z,7.05
2022-12-07T08:29:53.177Z,6.99
2022-12-07T08:31:55.360Z,7.07
2022-12-07T08:33:57.243Z,7.21
2022-12-07T08:36:07.713Z,7.15
2022-12-07T08:38:10.026Z,7.03
2022-12-07T08:40:16.247Z,7.04
2022-12-07T08:42:18.046Z,7.05
2022-12-07T08:44:20.201Z,6.96
2022-12-07T08:46:38.879Z,7.05
2022-12-07T08:48:46.751Z,7.10
2022-12-07T08:50:50.897Z,7.26
2022-12-07T08:52:55.318Z,7.15
2022-12-07T08:54:57.789Z,7.34
2022-12-07T08:57:00.237Z,7.42
2022-12-07T08:59:02.282Z,7.59
2022-12-07T09:01:04.695Z,7.72
2022-12-07T09:03:06.786Z,7.62
2022-12-07T09:05:14.824Z,7.70
2022-12-07T09:07:18.649Z,7.74
2022-12-07T09:09:20.874Z,7.67
2022-12-07T09:11:27.132Z,7.62
2022-12-07T09:13:30.638Z,7.48
2022-12-07T09:15:32.905Z,7.73
2022-12-07T09:17:35.858Z,7.87
2022-12-07T09:19:37.931Z,7.97
2022-12-07T09:21:40.043Z,8.02
2022-12-07T09:23:43.677Z,8.02
2022-12-07T09:25:45.483Z,8.02
2022-12-07T09:27:47.635Z,8.13
2022-12-07T09:29:49.403Z,8.20
2022-12-07T09:31:52.521Z,8.21
2022-12-07T09:33:56.904Z,8.30
2022-12-07T09:35:58.875Z,8.19
2022-12-07T09:38:00.654Z,8.21
2022-12-07T09:40:05.178Z,8.44
2022-12-07T09:42:08.782Z,8.49
2022-12-07T09:44:14.398Z,8.51
2022-12-07T09:46:19.996Z,8.53
2022-12-07T09:48:26.887Z,8.47
2022-12-07T09:50:29.626Z,8.44
2022-12-07T09:52:38.492Z,8.57
2022-12-07T09:54:44.420Z,8.54
2022-12-07T09:56:46.337Z,8.51
2022-12-07T09:58:49.352Z,8.45
2022-12-07T10:01:00.922Z,8.12
2022-12-07T10:03:03.715Z,8.27
2022-12-07T10:05:08.344Z,8.37
2022-12-07T10:07:10.335Z,8.45
2022-12-07T10:09:17.427Z,8.38
2022-12-07T10:11:19.578Z,8.40
2022-12-07T10:13:34.320Z,8.50
2022-12-07T10:15:51.212Z,8.69
2022-12-07T10:17:53.719Z,8.57
2022-12-07T10:20:18.545Z,8.48
2022-12-07T10:22:20.707Z,8.35
2022-12-07T10:24:23.235Z,8.31
2022-12-07T10:26:35.659Z,8.43
2022-12-07T10:28:42.142Z,8.46
2022-12-07T10:30:52.276Z,8.45
2022-12-07T10:32:54.155Z,8.60
2022-12-07T10:35:23.431Z,8.45
2022-12-07T10:37:29.197Z,8.24
2022-12-07T10:39:45.626Z,8.47
2022-12-07T10:42:02.090Z,8.44
2022-12-07T10:44:04.438Z,8.49
2022-12-07T10:46:31.078Z,8.34
2022-12-07T10:48:59.643Z,8.61
2022-12-07T10:51:13.647Z,8.74
2022-12-07T10:53:41.266Z,8.57
2022-12-07T10:56:10.266Z,8.60
2022-12-07T10:58:27.430Z,8.52
2022-12-07T11:00:43.884Z,8.45
2022-12-07T11:03:07.166Z,8.58
2022-12-07T11:05:13.045Z,8.71
2022-12-07T11:07:40.284Z,8.39
2022-12-07T11:10:14.041Z,8.69
2022-12-07T11:12:58.482Z,8.72
2022-12-07T11:15:25.902Z,8.79
2022-12-07T11:18:00.861Z,8.86
2022-12-07T11:20:30.818Z,8.79
2022-12-07T11:22:57.600Z,8.74
2022-12-07T11:25:18.380Z,8.82
2022-12-07T11:27:57.614Z,8.85
2022-12-07T11:30:18.146Z,8.90
2022-12-07T11:32:44.751Z,8.70
2022-12-07T11:34:46.579Z,8.73
2022-12-07T11:36:52.914Z,8.65
2022-12-07T11:38:59.278Z,8.68
2022-12-07T11:41:14.169Z,8.84
2022-12-07T11:43:25.048Z,8.79
2022-12-07T11:45:35.914Z,8.96
2022-12-07T11:47:48.376Z,9.05
2022-12-07T11:50:11.192Z,8.97
2022-12-07T11:52:26.500Z,9.12
2022-12-07T11:54:38.911Z,9.27
2022-12-07T11:56:41.947Z,9.28
2022-12-07T11:58:49.545Z,9.10
2022-12-07T12:00:56.716Z,9.15
2022-12-07T12:03:10.557Z,9.12
2022-12-07T12:05:23.163Z,9.19
2022-12-07T12:09:55.749Z,9.15
2022-12-07T12:14:36.719Z,8.91
2022-12-07T12:16:56.811Z,8.82
2022-12-07T12:19:41.561Z,8.93
2022-12-07T12:21:44.240Z,8.59
2022-12-07T12:23:52.041Z,8.53
2022-12-07T12:25:57.393Z,8.42
2022-12-07T12:28:00.842Z,8.52
2022-12-07T12:30:06.860Z,8.37
2022-12-07T12:32:16.568Z,8.50
2022-12-07T12:34:51.138Z,8.59
2022-12-07T12:36:53.390Z,8.36
2022-12-07T12:39:11.761Z,8.54
2022-12-07T12:41:37.071Z,8.56
2022-12-07T12:43:53.870Z,8.36
2022-12-07T12:46:37.320Z,8.29
2022-12-07T12:48:39.152Z,8.36
2022-12-07T12:50:41.351Z,8.43
2022-12-07T12:52:48.921Z,8.37
2022-12-07T12:55:10.710Z,8.27
2022-12-07T12:57:30.779Z,8.25
2022-12-07T12:59:34.858Z,8.27
2022-12-07T13:01:36.743Z,8.22
2022-12-07T13:03:39.106Z,7.95
2022-12-07T13:05:41.061Z,7.90
2022-12-07T13:07:46.239Z,7.87
2022-12-07T13:09:48.467Z,7.88
2022-12-07T13:11:56.294Z,7.63
2022-12-07T13:14:36.360Z,7.64
2022-12-07T13:16:41.811Z,7.71
2022-12-07T13:18:44.019Z,7.69
2022-12-07T13:20:52.183Z,7.73
2022-12-07T13:22:58.883Z,7.73
2022-12-07T13:25:11.966Z,7.67
2022-12-07T13:27:14.260Z,7.58
2022-12-07T13:29:21.251Z,7.57
2022-12-07T13:31:38.515Z,7.72
2022-12-07T13:33:40.824Z,7.65
2022-12-07T13:35:42.798Z,7.62
2022-12-07T13:37:45.393Z,7.78
2022-12-07T13:39:52.530Z,7.77
2022-12-07T13:41:57.772Z,7.75
2022-12-07T13:44:02.156Z,7.73
2022-12-07T13:46:09.320Z,7.68
2022-12-07T13:48:21.585Z,7.75
2022-12-07T13:50:30.745Z,7.60
2022-12-07T13:52:32.599Z,7.44
2022-12-07T13:54:45.085Z,7.43
2022-12-07T13:56:53.573Z,7.51
2022-12-07T13:58:55.972Z,7.49
2022-12-07T14:00:59.136Z,7.34
2022-12-07T14:03:02.188Z,7.11
2022-12-07T14:05:24.962Z,7.10
2022-12-07T14:07:29.672Z,7.26
2022-12-07T14:09:31.770Z,7.18
2022-12-07T14:11:34.606Z,7.09
2022-12-07T14:13:40.369Z,7.03
2022-12-07T14:15:42.290Z,6.92
2022-12-07T14:17:56.945Z,6.91
2022-12-07T14:20:01.453Z,6.98
2022-12-07T14:22:20.209Z,6.85
2022-12-07T14:24:22.004Z,6.99
2022-12-07T14:26:24.216Z,7.06
2022-12-07T14:28:34.020Z,6.93
2022-12-07T14:30:35.972Z,6.99
2022-12-07T14:32:39.051Z,6.90
2022-12-07T14:34:40.952Z,7.00
2022-12-07T14:36:43.098Z,6.98
2022-12-07T14:38:45.871Z,7.05
2022-12-07T14:40:47.728Z,6.97
2022-12-07T14:42:55.759Z,6.83
2022-12-07T14:44:58.901Z,6.83
2022-12-07T14:49:38.578Z,6.83
2022-12-07T14:54:13.137Z,6.47
2022-12-07T14:56:15.139Z,6.58
2022-12-07T14:58:18.543Z,6.54
2022-12-07T15:00:23.003Z,6.50
2022-12-07T15:02:24.765Z,6.44
2022-12-07T15:04:26.811Z,6.42
2022-12-07T15:06:30.154Z,6.25
2022-12-07T15:08:32.055Z,6.41
2022-12-07T15:10:34.974Z,6.16
2022-12-07T15:12:37.128Z,6.14
2022-12-07T15:14:38.988Z,6.15
2022-12-07T15:17:07.462Z,6.22
2022-12-07T15:19:27.477Z,6.23
2022-12-07T15:21:27.718Z,5.96
2022-12-07T15:23:30.033Z,6.26
2022-12-07T15:25:32.035Z,6.18
2022-12-07T15:27:34.312Z,6.22
2022-12-07T15:29:36.563Z,6.15
2022-12-07T15:31:55.193Z,6.14
2022-12-07T15:33:59.283Z,6.19
2022-12-07T15:36:01.145Z,6.02
2022-12-07T15:38:03.910Z,5.69
2022-12-07T15:40:08.162Z,5.91
2022-12-07T15:42:10.206Z,6.05
2022-12-07T15:44:34.531Z,6.06
2022-12-07T15:46:38.952Z,5.98
2022-12-07T15:48:40.865Z,5.93
2022-12-07T15:50:44.481Z,6.09
2022-12-07T15:52:46.315Z,6.16
2022-12-07T15:54:49.117Z,6.05
2022-12-07T15:56:52.410Z,6.23
2022-12-07T15:58:54.242Z,6.10
2022-12-07T16:00:56.059Z,6.12
2022-12-07T16:02:58.373Z,6.22
2022-12-07T16:05:00.550Z,6.13
2022-12-07T16:07:03.163Z,6.26
2022-12-07T16:09:05.857Z,6.19
2022-12-07T16:11:07.840Z,6.39
2022-12-07T16:13:14.538Z,6.51
2022-12-07T16:15:21.433Z,6.58
2022-12-07T16:17:26.381Z,6.59
2022-12-07T16:19:29.132Z,6.54
2022-12-07T16:21:31.275Z,6.57
2022-12-07T16:23:33.314Z,6.51
2022-12-07T16:25:35.492Z,6.60
2022-12-07T16:27:41.129Z,6.54
2022-12-07T16:29:44.190Z,6.61
2022-12-07T16:31:48.837Z,6.40
2022-12-07T16:33:51.002Z,6.59
2022-12-07T16:35:53.185Z,6.66
2022-12-07T16:37:55.477Z,6.65
2022-12-07T16:39:57.323Z,6.72
2022-12-07T16:41:59.154Z,6.83
2022-12-07T16:44:06.587Z,6.77
2022-12-07T16:46:08.541Z,6.55
2022-12-07T16:48:10.445Z,6.77
2022-12-07T16:50:12.578Z,6.85
2022-12-07T16:52:20.343Z,6.45
2022-12-07T16:54:22.668Z,6.64
2022-12-07T16:56:25.773Z,6.68
2022-12-07T16:58:27.719Z,6.72
2022-12-07T17:00:29.553Z,6.46
2022-12-07T17:02:31.769Z,6.44
2022-12-07T17:04:36.935Z,6.64
2022-12-07T17:06:38.733Z,6.62
2022-12-07T17:08:40.986Z,6.45
2022-12-07T17:10:44.958Z,6.31
2022-12-07T17:12:47.247Z,6.52
2022-12-07T17:15:08.870Z,6.67
2022-12-07T17:17:10.698Z,6.62
2022-12-07T17:19:15.337Z,6.57
2022-12-07T17:21:17.986Z,6.80
2022-12-07T17:23:20.396Z,6.84
2022-12-07T17:25:22.343Z,6.64
2022-12-07T17:27:24.581Z,6.78
2022-12-07T17:29:26.908Z,6.82
2022-12-07T17:31:28.754Z,6.99
2022-12-07T17:33:32.673Z,7.07
2022-12-07T17:35:34.537Z,6.97
2022-12-07T17:37:36.546Z,6.99
2022-12-07T17:39:38.961Z,6.78
2022-12-07T17:41:59.894Z,7.00
2022-12-07T17:44:06.086Z,6.95
2022-12-07T17:46:10.171Z,6.91
2022-12-07T17:48:12.811Z,7.06
2022-12-07T17:50:14.858Z,7.10
2022-12-07T17:52:34.994Z,7.05
2022-12-07T17:54:36.924Z,6.95
2022-12-07T17:56:39.549Z,6.85
2022-12-07T17:58:41.318Z,6.98
2022-12-07T18:00:43.313Z,6.95
2022-12-07T18:02:45.647Z,6.72
2022-12-07T18:04:47.982Z,6.80
2022-12-07T18:06:52.242Z,6.77
2022-12-07T18:08:54.959Z,6.77
2022-12-07T18:11:01.066Z,6.91
2022-12-07T18:13:22.570Z,6.95
2022-12-07T18:15:24.698Z,6.96
2022-12-07T18:17:26.463Z,6.96
2022-12-07T18:19:28.248Z,6.99
2022-12-07T18:21:31.851Z,6.90
2022-12-07T18:23:33.971Z,6.96
2022-12-07T18:25:35.785Z,6.70
2022-12-07T18:27:37.989Z,6.69
2022-12-07T18:29:39.847Z,6.30
2022-12-07T18:31:41.889Z,6.35
2022-12-07T18:33:46.551Z,6.34
2022-12-07T18:35:48.562Z,6.04
2022-12-07T18:37:50.395Z,5.97
2022-12-07T18:39:52.558Z,5.89
2022-12-07T18:41:54.430Z,6.00
2022-12-07T18:43:56.536Z,6.08
2022-12-07T18:46:00.875Z,5.88
2022-12-07T18:48:03.612Z,6.03
2022-12-07T18:50:06.216Z,6.03
2022-12-07T18:52:08.334Z,6.08
2022-12-07T18:54:10.251Z,6.00
2022-12-07T18:56:14.715Z,6.07
2022-12-07T18:58:16.529Z,6.11
2022-12-07T19:00:19.111Z,6.02
2022-12-07T19:02:21.201Z,6.06
2022-12-07T19:04:23.402Z,6.08
2022-12-07T19:06:25.663Z,6.22
2022-12-07T19:08:27.931Z,6.34
2022-12-07T19:10:29.791Z,6.38
2022-12-07T19:12:31.991Z,6.46
2022-12-07T19:14:36.147Z,6.42
2022-12-07T19:16:38.514Z,6.51
2022-12-07T19:18:40.751Z,6.48
2022-12-07T19:20:42.640Z,6.47
2022-12-07T19:22:44.451Z,6.25
2022-12-07T19:24:49.617Z,6.24
2022-12-07T19:26:52.412Z,6.28
2022-12-07T19:28:54.937Z,6.41
2022-12-07T19:30:57.103Z,6.51
2022-12-07T19:32:58.868Z,6.32
2022-12-07T19:35:00.836Z,6.19
2022-12-07T19:37:03.832Z,6.30
2022-12-07T19:39:09.885Z,6.27
2022-12-07T19:41:34.411Z,6.30
2022-12-07T19:43:41.495Z,6.17
2022-12-07T19:45:43.354Z,6.28
2022-12-07T19:47:45.723Z,6.16
2022-12-07T19:49:49.994Z,6.29
2022-12-07T19:51:57.554Z,6.37
2022-12-07T19:54:02.456Z,6.25
2022-12-07T19:56:05.114Z,6.30
2022-12-07T19:58:07.357Z,6.35
2022-12-07T20:00:09.879Z,6.38
2022-12-07T20:02:16.142Z,6.37
2022-12-07T20:04:31.371Z,6.35
2022-12-07T20:06:35.129Z,6.27
2022-12-07T20:08:37.060Z,6.34
2022-12-07T20:10:40.303Z,6.30
2022-12-07T20:13:00.569Z,6.29
2022-12-07T20:15:03.308Z,6.11
2022-12-07T20:17:06.006Z,6.20
2022-12-07T20:19:09.061Z,6.16
2022-12-07T20:21:11.462Z,6.30
2022-12-07T20:23:13.248Z,6.25
2022-12-07T20:25:17.643Z,6.33
2022-12-07T20:27:21.892Z,6.36
2022-12-07T20:29:26.412Z,6.22
2022-12-07T20:31:28.280Z,6.33
2022-12-07T20:33:30.711Z,6.14
2022-12-07T20:35:32.564Z,5.96
2022-12-07T20:37:34.410Z,6.11
2022-12-07T20:39:36.546Z,5.97
2022-12-07T20:41:57.924Z,6.01
2022-12-07T20:44:01.090Z,5.99
2022-12-07T20:46:03.781Z,5.87
2022-12-07T20:48:05.766Z,5.81
2022-12-07T20:50:08.201Z,5.67
2022-12-07T20:52:10.369Z,5.76
2022-12-07T20:54:13.156Z,5.59
2022-12-07T20:56:22.803Z,5.65
2022-12-07T20:58:28.575Z,5.55
2022-12-07T21:00:30.823Z,5.44
2022-12-07T21:02:34.071Z,5.38
2022-12-07T21:04:36.005Z,5.31
2022-12-07T21:06:39.715Z,5.35
2022-12-07T21:08:51.326Z,5.35
2022-12-07T21:10:53.524Z,5.41
2022-12-07T21:12:58.828Z,5.28
2022-12-07T21:15:01.249Z,5.24
2022-12-07T21:17:03.370Z,5.38
2022-12-07T21:19:05.878Z,5.39
2022-12-07T21:21:10.872Z,5.43
2022-12-07T21:23:12.724Z,5.35
2022-12-07T21:25:15.378Z,5.36
2022-12-07T21:27:17.542Z,5.30
2022-12-07T21:29:34.691Z,5.09
2022-12-07T21:31:43.817Z,4.94
2022-12-07T21:33:46.018Z,5.19
2022-12-07T21:35:47.901Z,5.12
2022-12-07T21:37:50.034Z,5.15
2022-12-07T21:39:51.806Z,5.16
2022-12-07T21:41:53.955Z,5.20
2022-12-07T21:43:56.353Z,5.20
2022-12-07T21:45:58.213Z,4.99
2022-12-07T21:48:00.467Z,5.11
2022-12-07T21:50:02.292Z,4.99
2022-12-07T21:52:04.881Z,4.89
2022-12-07T21:54:07.433Z,5.09
2022-12-07T21:56:30.851Z,5.20
2022-12-07T21:58:33.075Z,5.27
2022-12-07T22:00:34.990Z,5.24
2022-12-07T22:02:36.815Z,5.24
2022-12-07T22:04:39.046Z,5.22
2022-12-07T22:06:40.844Z,5.12
2022-12-07T22:08:44.074Z,5.04
2022-12-07T22:10:46.263Z,5.02
2022-12-07T22:12:48.102Z,5.04
2022-12-07T22:15:09.929Z,5.04
2022-12-07T22:17:12.153Z,5.15
2022-12-07T22:19:13.951Z,5.08
2022-12-07T22:21:15.762Z,5.15
2022-12-07T22:23:17.894Z,5.24
2022-12-07T22:25:19.774Z,5.25
2022-12-07T22:27:22.994Z,5.30
2022-12-07T22:29:25.201Z,5.28
2022-12-07T22:31:27.013Z,5.32
2022-12-07T22:33:29.215Z,5.32
2022-12-07T22:35:31.230Z,5.45
2022-12-07T22:37:33.612Z,5.49
2022-12-07T22:39:35.406Z,5.23
2022-12-07T22:41:37.239Z,5.34
2022-12-07T22:43:39.772Z,5.55
2022-12-07T22:45:41.655Z,5.51
2022-12-07T22:47:43.666Z,5.49
2022-12-07T22:49:45.846Z,5.43
2022-12-07T22:51:48.229Z,5.29
2022-12-07T22:53:50.448Z,5.30
2022-12-07T22:55:52.644Z,5.18
2022-12-07T22:57:54.504Z,5.15
2022-12-07T22:59:56.415Z,5.23
2022-12-07T23:01:58.675Z,5.15
2022-12-07T23:04:00.689Z,5.23
2022-12-07T23:06:11.072Z,5.31
2022-12-07T23:08:13.813Z,5.31
2022-12-07T23:10:15.781Z,5.34
2022-12-07T23:12:35.949Z,5.38
2022-12-07T23:14:38.353Z,5.37
2022-12-07T23:16:40.406Z,5.40
2022-12-07T23:18:42.933Z,5.36
2022-12-07T23:20:47.599Z,5.36
2022-12-07T23:22:49.368Z,5.34
2022-12-07T23:24:51.160Z,5.15
2022-12-07T23:26:53.335Z,5.31
2022-12-07T23:28:55.115Z,5.29
2022-12-07T23:31:07.164Z,5.32
2022-12-07T23:33:09.441Z,5.42
2022-12-07T23:35:11.262Z,5.32
2022-12-07T23:37:13.079Z,5.31
2022-12-07T23:39:15.505Z,5.35
2022-12-07T23:41:19.561Z,5.38
2022-12-07T23:43:21.384Z,5.36
2022-12-07T23:45:23.631Z,5.32
2022-12-07T23:47:25.412Z,5.25
2022-12-07T23:49:27.210Z,5.17
2022-12-07T23:51:30.352Z,5.20
2022-12-07T23:53:37.872Z,5.34
2022-12-07T23:55:45.339Z,5.31
2022-12-07T23:57:47.472Z,5.33
2022-12-07T23:59:49.408Z,5.29
